sensor_id;sensor_type;location;lat;lon;timestamp;P1;durP1;ratioP1;P2;durP2;ratioP2
23684;SDS011;12020;51.384;6.908;2023-12-22T00:02:41;5.68;;;1.50;;
23684;SDS011;12020;51.384;6.908;2023-12-22T00:05:29;6.28;;;1.63;;
23684;SDS011;12020;51.384;6.908;2023-12-22T00:07:56;6.20;;;1.50;;
23684;SDS011;12020;51.384;6.908;2023-12-22T00:10:24;5.53;;;1.40;;
23684;SDS011;12020;51.384;6.908;2023-12-22T00:12:51;5.73;;;1.47;;
23684;SDS011;12020;51.384;6.908;2023-12-22T00:15:18;5.55;;;1.50;;
23684;SDS011;12020;51.384;6.908;2023-12-22T00:17:45;6.88;;;1.60;;
23684;SDS011;12020;51.384;6.908;2023-12-22T00:20:11;6.60;;;1.50;;
23684;SDS011;12020;51.384;6.908;2023-12-22T00:22:39;7.05;;;1.40;;
23684;SDS011;12020;51.384;6.908;2023-12-22T00:25:11;5.25;;;1.58;;
23684;SDS011;12020;51.384;6.908;2023-12-22T00:27:40;7.07;;;1.75;;
23684;SDS011;12020;51.384;6.908;2023-12-22T00:30:08;6.50;;;1.77;;
23684;SDS011;12020;51.384;6.908;2023-12-22T00:32:38;7.90;;;2.10;;
23684;SDS011;12020;51.384;6.908;2023-12-22T00:35:05;5.25;;;1.33;;
23684;SDS011;12020;51.384;6.908;2023-12-22T00:37:32;6.72;;;1.70;;
23684;SDS011;12020;51.384;6.908;2023-12-22T00:39:58;5.43;;;1.40;;
23684;SDS011;12020;51.384;6.908;2023-12-22T00:42:26;5.57;;;1.55;;
23684;SDS011;12020;51.384;6.908;2023-12-22T00:44:53;7.20;;;1.40;;
23684;SDS011;12020;51.384;6.908;2023-12-22T00:47:20;7.70;;;1.80;;
23684;SDS011;12020;51.384;6.908;2023-12-22T00:49:48;6.63;;;1.60;;
23684;SDS011;12020;51.384;6.908;2023-12-22T00:52:15;8.27;;;1.83;;
23684;SDS011;12020;51.384;6.908;2023-12-22T00:54:41;7.38;;;1.80;;
23684;SDS011;12020;51.384;6.908;2023-12-22T00:57:11;9.68;;;1.90;;
23684;SDS011;12020;51.384;6.908;2023-12-22T00:59:43;6.05;;;1.80;;
23684;SDS011;12020;51.384;6.908;2023-12-22T01:02:18;9.02;;;2.20;;
23684;SDS011;12020;51.384;6.908;2023-12-22T01:04:44;6.65;;;1.55;;
23684;SDS011;12020;51.384;6.908;2023-12-22T01:07:10;8.27;;;1.88;;
23684;SDS011;12020;51.384;6.908;2023-12-22T01:09:37;8.05;;;1.95;;
23684;SDS011;12020;51.384;6.908;2023-12-22T01:12:32;9.27;;;2.10;;
23684;SDS011;12020;51.384;6.908;2023-12-22T01:15:07;7.78;;;1.70;;
23684;SDS011;12020;51.384;6.908;2023-12-22T01:20:14;6.65;;;1.90;;
23684;SDS011;12020;51.384;6.908;2023-12-22T01:22:41;8.77;;;1.70;;
23684;SDS011;12020;51.384;6.908;2023-12-22T01:25:44;8.23;;;1.90;;
23684;SDS011;12020;51.384;6.908;2023-12-22T01:28:14;6.45;;;1.55;;
23684;SDS011;12020;51.384;6.908;2023-12-22T01:30:59;8.80;;;1.80;;
23684;SDS011;12020;51.384;6.908;2023-12-22T01:33:48;7.47;;;1.97;;
23684;SDS011;12020;51.384;6.908;2023-12-22T01:36:17;9.73;;;2.20;;
23684;SDS011;12020;51.384;6.908;2023-12-22T01:38:45;8.70;;;2.20;;
23684;SDS011;12020;51.384;6.908;2023-12-22T01:41:13;8.77;;;1.97;;
23684;SDS011;12020;51.384;6.908;2023-12-22T01:43:40;8.27;;;1.85;;
23684;SDS011;12020;51.384;6.908;2023-12-22T01:46:41;6.10;;;1.90;;
23684;SDS011;12020;51.384;6.908;2023-12-22T01:49:07;6.63;;;1.85;;
23684;SDS011;12020;51.384;6.908;2023-12-22T01:51:35;5.35;;;1.30;;
23684;SDS011;12020;51.384;6.908;2023-12-22T01:54:06;4.35;;;1.38;;
23684;SDS011;12020;51.384;6.908;2023-12-22T01:56:53;3.60;;;1.23;;
23684;SDS011;12020;51.384;6.908;2023-12-22T01:59:43;3.72;;;1.05;;
23684;SDS011;12020;51.384;6.908;2023-12-22T02:02:26;5.40;;;1.33;;
23684;SDS011;12020;51.384;6.908;2023-12-22T02:04:55;3.58;;;1.20;;
23684;SDS011;12020;51.384;6.908;2023-12-22T02:07:24;5.90;;;1.52;;
23684;SDS011;12020;51.384;6.908;2023-12-22T02:09:51;4.80;;;1.38;;
23684;SDS011;12020;51.384;6.908;2023-12-22T02:12:16;3.60;;;1.10;;
23684;SDS011;12020;51.384;6.908;2023-12-22T02:14:43;3.70;;;1.13;;
23684;SDS011;12020;51.384;6.908;2023-12-22T02:17:15;4.82;;;1.23;;
23684;SDS011;12020;51.384;6.908;2023-12-22T02:20:00;4.43;;;1.20;;
23684;SDS011;12020;51.384;6.908;2023-12-22T02:22:29;4.47;;;1.15;;
23684;SDS011;12020;51.384;6.908;2023-12-22T02:25:00;4.15;;;1.10;;
23684;SDS011;12020;51.384;6.908;2023-12-22T02:30:06;4.80;;;1.10;;
23684;SDS011;12020;51.384;6.908;2023-12-22T02:33:03;5.90;;;1.30;;
23684;SDS011;12020;51.384;6.908;2023-12-22T02:35:36;7.40;;;1.70;;
23684;SDS011;12020;51.384;6.908;2023-12-22T02:38:24;7.97;;;1.58;;
23684;SDS011;12020;51.384;6.908;2023-12-22T02:40:59;5.68;;;1.30;;
23684;SDS011;12020;51.384;6.908;2023-12-22T02:43:27;5.82;;;1.45;;
23684;SDS011;12020;51.384;6.908;2023-12-22T02:45:58;7.57;;;1.70;;
23684;SDS011;12020;51.384;6.908;2023-12-22T02:48:31;8.88;;;1.70;;
23684;SDS011;12020;51.384;6.908;2023-12-22T02:51:00;7.27;;;1.60;;
23684;SDS011;12020;51.384;6.908;2023-12-22T02:53:27;6.95;;;1.55;;
23684;SDS011;12020;51.384;6.908;2023-12-22T02:55:55;6.40;;;1.40;;
23684;SDS011;12020;51.384;6.908;2023-12-22T02:58:21;6.20;;;1.65;;
23684;SDS011;12020;51.384;6.908;2023-12-22T03:00:47;6.82;;;1.40;;
23684;SDS011;12020;51.384;6.908;2023-12-22T03:03:14;6.18;;;1.90;;
23684;SDS011;12020;51.384;6.908;2023-12-22T03:05:41;7.30;;;1.67;;
23684;SDS011;12020;51.384;6.908;2023-12-22T03:08:08;6.35;;;2.17;;
23684;SDS011;12020;51.384;6.908;2023-12-22T03:10:34;8.73;;;1.98;;
23684;SDS011;12020;51.384;6.908;2023-12-22T03:13:02;9.30;;;2.00;;
23684;SDS011;12020;51.384;6.908;2023-12-22T03:15:29;6.43;;;1.63;;
23684;SDS011;12020;51.384;6.908;2023-12-22T03:17:59;6.00;;;1.87;;
23684;SDS011;12020;51.384;6.908;2023-12-22T03:20:33;8.60;;;2.00;;
23684;SDS011;12020;51.384;6.908;2023-12-22T03:23:18;8.50;;;1.70;;
23684;SDS011;12020;51.384;6.908;2023-12-22T03:26:07;7.18;;;1.80;;
23684;SDS011;12020;51.384;6.908;2023-12-22T03:28:37;7.85;;;1.83;;
23684;SDS011;12020;51.384;6.908;2023-12-22T03:31:09;5.78;;;1.50;;
23684;SDS011;12020;51.384;6.908;2023-12-22T03:33:36;6.53;;;1.48;;
23684;SDS011;12020;51.384;6.908;2023-12-22T03:36:22;7.88;;;1.60;;
23684;SDS011;12020;51.384;6.908;2023-12-22T03:38:54;7.53;;;1.90;;
23684;SDS011;12020;51.384;6.908;2023-12-22T03:41:29;7.75;;;1.67;;
23684;SDS011;12020;51.384;6.908;2023-12-22T03:43:56;6.30;;;1.47;;
23684;SDS011;12020;51.384;6.908;2023-12-22T03:46:22;7.85;;;1.90;;
23684;SDS011;12020;51.384;6.908;2023-12-22T03:48:50;9.43;;;1.90;;
23684;SDS011;12020;51.384;6.908;2023-12-22T03:51:20;9.63;;;1.83;;
23684;SDS011;12020;51.384;6.908;2023-12-22T03:56:50;6.72;;;2.08;;
23684;SDS011;12020;51.384;6.908;2023-12-22T04:02:58;7.82;;;2.17;;
23684;SDS011;12020;51.384;6.908;2023-12-22T04:08:54;6.47;;;1.80;;
23684;SDS011;12020;51.384;6.908;2023-12-22T04:20:26;7.82;;;2.25;;
23684;SDS011;12020;51.384;6.908;2023-12-22T04:23:13;11.57;;;2.67;;
23684;SDS011;12020;51.384;6.908;2023-12-22T04:25:41;10.87;;;2.90;;
23684;SDS011;12020;51.384;6.908;2023-12-22T04:30:57;11.82;;;2.85;;
23684;SDS011;12020;51.384;6.908;2023-12-22T04:33:25;11.70;;;2.50;;
23684;SDS011;12020;51.384;6.908;2023-12-22T04:35:52;11.98;;;2.70;;
23684;SDS011;12020;51.384;6.908;2023-12-22T04:38:45;9.68;;;2.17;;
23684;SDS011;12020;51.384;6.908;2023-12-22T04:41:17;11.23;;;2.42;;
23684;SDS011;12020;51.384;6.908;2023-12-22T04:43:55;12.52;;;2.95;;
23684;SDS011;12020;51.384;6.908;2023-12-22T04:49:03;12.55;;;2.30;;
23684;SDS011;12020;51.384;6.908;2023-12-22T04:51:32;12.02;;;2.80;;
23684;SDS011;12020;51.384;6.908;2023-12-22T04:54:25;10.13;;;2.83;;
23684;SDS011;12020;51.384;6.908;2023-12-22T04:57:05;9.85;;;2.83;;
23684;SDS011;12020;51.384;6.908;2023-12-22T04:59:32;10.73;;;2.30;;
23684;SDS011;12020;51.384;6.908;2023-12-22T05:01:59;7.78;;;2.17;;
23684;SDS011;12020;51.384;6.908;2023-12-22T05:04:33;8.80;;;2.38;;
23684;SDS011;12020;51.384;6.908;2023-12-22T05:07:02;11.50;;;2.65;;
23684;SDS011;12020;51.384;6.908;2023-12-22T05:09:33;9.90;;;2.87;;
23684;SDS011;12020;51.384;6.908;2023-12-22T05:12:04;10.60;;;2.53;;
23684;SDS011;12020;51.384;6.908;2023-12-22T05:14:30;12.95;;;2.88;;
23684;SDS011;12020;51.384;6.908;2023-12-22T05:16:58;7.47;;;1.90;;
23684;SDS011;12020;51.384;6.908;2023-12-22T05:19:25;6.88;;;2.08;;
23684;SDS011;12020;51.384;6.908;2023-12-22T05:21:57;7.25;;;2.05;;
23684;SDS011;12020;51.384;6.908;2023-12-22T05:24:51;6.55;;;2.08;;
23684;SDS011;12020;51.384;6.908;2023-12-22T05:27:18;6.82;;;2.33;;
23684;SDS011;12020;51.384;6.908;2023-12-22T05:29:45;6.43;;;2.20;;
23684;SDS011;12020;51.384;6.908;2023-12-22T05:32:14;5.68;;;2.10;;
23684;SDS011;12020;51.384;6.908;2023-12-22T05:34:57;6.28;;;2.28;;
23684;SDS011;12020;51.384;6.908;2023-12-22T05:37:26;6.25;;;2.10;;
23684;SDS011;12020;51.384;6.908;2023-12-22T05:39:52;3.38;;;1.50;;
23684;SDS011;12020;51.384;6.908;2023-12-22T05:42:19;4.90;;;1.40;;
23684;SDS011;12020;51.384;6.908;2023-12-22T05:44:47;5.93;;;1.70;;
23684;SDS011;12020;51.384;6.908;2023-12-22T05:47:20;3.72;;;1.25;;
23684;SDS011;12020;51.384;6.908;2023-12-22T05:49:53;5.50;;;1.20;;
23684;SDS011;12020;51.384;6.908;2023-12-22T05:52:20;5.53;;;1.17;;
23684;SDS011;12020;51.384;6.908;2023-12-22T05:54:48;5.60;;;1.40;;
23684;SDS011;12020;51.384;6.908;2023-12-22T06:00:06;5.35;;;1.45;;
23684;SDS011;12020;51.384;6.908;2023-12-22T06:02:56;6.30;;;1.55;;
23684;SDS011;12020;51.384;6.908;2023-12-22T06:05:37;8.27;;;1.70;;
23684;SDS011;12020;51.384;6.908;2023-12-22T06:09:15;7.50;;;2.27;;
23684;SDS011;12020;51.384;6.908;2023-12-22T06:11:54;7.97;;;1.92;;
23684;SDS011;12020;51.384;6.908;2023-12-22T06:14:39;5.40;;;1.65;;
23684;SDS011;12020;51.384;6.908;2023-12-22T06:17:34;8.32;;;1.80;;
23684;SDS011;12020;51.384;6.908;2023-12-22T06:24:09;7.20;;;1.90;;
23684;SDS011;12020;51.384;6.908;2023-12-22T06:26:34;9.75;;;2.17;;
23684;SDS011;12020;51.384;6.908;2023-12-22T06:29:00;7.72;;;2.00;;
23684;SDS011;12020;51.384;6.908;2023-12-22T06:31:28;10.10;;;2.17;;
23684;SDS011;12020;51.384;6.908;2023-12-22T06:33:53;8.30;;;2.03;;
23684;SDS011;12020;51.384;6.908;2023-12-22T06:36:20;9.07;;;2.13;;
23684;SDS011;12020;51.384;6.908;2023-12-22T06:38:53;11.52;;;2.50;;
23684;SDS011;12020;51.384;6.908;2023-12-22T06:41:26;10.23;;;2.07;;
23684;SDS011;12020;51.384;6.908;2023-12-22T06:44:34;9.50;;;2.05;;
23684;SDS011;12020;51.384;6.908;2023-12-22T06:47:00;8.07;;;1.90;;
23684;SDS011;12020;51.384;6.908;2023-12-22T06:49:41;8.63;;;1.90;;
23684;SDS011;12020;51.384;6.908;2023-12-22T06:52:25;7.18;;;2.15;;
23684;SDS011;12020;51.384;6.908;2023-12-22T06:54:54;11.07;;;2.57;;
23684;SDS011;12020;51.384;6.908;2023-12-22T06:57:25;10.38;;;2.20;;
23684;SDS011;12020;51.384;6.908;2023-12-22T07:03:04;9.68;;;1.92;;
23684;SDS011;12020;51.384;6.908;2023-12-22T07:05:33;12.10;;;2.70;;
23684;SDS011;12020;51.384;6.908;2023-12-22T07:08:01;13.38;;;2.70;;
23684;SDS011;12020;51.384;6.908;2023-12-22T07:10:27;12.18;;;2.70;;
23684;SDS011;12020;51.384;6.908;2023-12-22T07:12:53;13.18;;;3.80;;
23684;SDS011;12020;51.384;6.908;2023-12-22T07:15:20;12.35;;;3.78;;
23684;SDS011;12020;51.384;6.908;2023-12-22T07:17:46;10.98;;;4.20;;
23684;SDS011;12020;51.384;6.908;2023-12-22T07:20:11;14.90;;;4.47;;
23684;SDS011;12020;51.384;6.908;2023-12-22T07:22:38;11.32;;;4.15;;
23684;SDS011;12020;51.384;6.908;2023-12-22T07:25:04;11.03;;;3.70;;
23684;SDS011;12020;51.384;6.908;2023-12-22T07:27:32;12.10;;;3.33;;
23684;SDS011;12020;51.384;6.908;2023-12-22T07:29:59;8.65;;;2.50;;
23684;SDS011;12020;51.384;6.908;2023-12-22T07:32:25;10.50;;;2.85;;
23684;SDS011;12020;51.384;6.908;2023-12-22T07:34:51;14.33;;;2.87;;
23684;SDS011;12020;51.384;6.908;2023-12-22T07:39:49;13.05;;;2.92;;
23684;SDS011;12020;51.384;6.908;2023-12-22T07:42:15;11.63;;;3.00;;
23684;SDS011;12020;51.384;6.908;2023-12-22T07:44:42;11.10;;;3.10;;
23684;SDS011;12020;51.384;6.908;2023-12-22T07:47:08;11.53;;;2.73;;
23684;SDS011;12020;51.384;6.908;2023-12-22T07:49:35;11.48;;;2.70;;
23684;SDS011;12020;51.384;6.908;2023-12-22T07:52:01;12.88;;;2.60;;
23684;SDS011;12020;51.384;6.908;2023-12-22T07:54:27;10.75;;;2.85;;
23684;SDS011;12020;51.384;6.908;2023-12-22T07:56:53;12.60;;;3.03;;
23684;SDS011;12020;51.384;6.908;2023-12-22T07:59:19;10.97;;;3.13;;
23684;SDS011;12020;51.384;6.908;2023-12-22T08:01:44;12.87;;;3.40;;
23684;SDS011;12020;51.384;6.908;2023-12-22T08:04:10;13.97;;;3.50;;
23684;SDS011;12020;51.384;6.908;2023-12-22T08:06:36;14.25;;;3.22;;
23684;SDS011;12020;51.384;6.908;2023-12-22T08:09:03;14.85;;;3.70;;
23684;SDS011;12020;51.384;6.908;2023-12-22T08:11:28;14.27;;;3.55;;
23684;SDS011;12020;51.384;6.908;2023-12-22T08:13:54;14.00;;;3.63;;
23684;SDS011;12020;51.384;6.908;2023-12-22T08:16:20;15.17;;;4.03;;
23684;SDS011;12020;51.384;6.908;2023-12-22T08:18:46;19.10;;;3.73;;
23684;SDS011;12020;51.384;6.908;2023-12-22T08:21:13;18.70;;;4.37;;
23684;SDS011;12020;51.384;6.908;2023-12-22T08:23:39;15.85;;;4.22;;
23684;SDS011;12020;51.384;6.908;2023-12-22T08:26:05;18.70;;;4.50;;
23684;SDS011;12020;51.384;6.908;2023-12-22T08:28:31;17.67;;;4.53;;
23684;SDS011;12020;51.384;6.908;2023-12-22T08:30:57;19.50;;;4.57;;
23684;SDS011;12020;51.384;6.908;2023-12-22T08:33:22;17.65;;;4.85;;
23684;SDS011;12020;51.384;6.908;2023-12-22T08:35:48;21.02;;;5.13;;
23684;SDS011;12020;51.384;6.908;2023-12-22T08:38:14;20.33;;;5.13;;
23684;SDS011;12020;51.384;6.908;2023-12-22T08:40:40;18.43;;;5.13;;
23684;SDS011;12020;51.384;6.908;2023-12-22T08:43:06;21.67;;;5.13;;
23684;SDS011;12020;51.384;6.908;2023-12-22T08:45:31;21.63;;;5.80;;
23684;SDS011;12020;51.384;6.908;2023-12-22T08:47:57;22.02;;;4.88;;
23684;SDS011;12020;51.384;6.908;2023-12-22T08:50:23;22.10;;;5.10;;
23684;SDS011;12020;51.384;6.908;2023-12-22T08:52:49;24.47;;;6.20;;
23684;SDS011;12020;51.384;6.908;2023-12-22T08:55:16;22.55;;;5.22;;
23684;SDS011;12020;51.384;6.908;2023-12-22T08:57:41;25.00;;;6.30;;
23684;SDS011;12020;51.384;6.908;2023-12-22T09:00:08;23.98;;;5.88;;
23684;SDS011;12020;51.384;6.908;2023-12-22T09:02:34;27.80;;;7.00;;
23684;SDS011;12020;51.384;6.908;2023-12-22T09:05:00;24.27;;;5.75;;
23684;SDS011;12020;51.384;6.908;2023-12-22T09:07:25;27.90;;;6.23;;
23684;SDS011;12020;51.384;6.908;2023-12-22T09:09:52;24.88;;;5.78;;
23684;SDS011;12020;51.384;6.908;2023-12-22T09:12:18;23.10;;;6.03;;
23684;SDS011;12020;51.384;6.908;2023-12-22T09:14:44;25.00;;;6.38;;
23684;SDS011;12020;51.384;6.908;2023-12-22T09:17:10;25.13;;;6.72;;
23684;SDS011;12020;51.384;6.908;2023-12-22T09:19:36;27.80;;;7.53;;
23684;SDS011;12020;51.384;6.908;2023-12-22T09:22:03;28.70;;;7.53;;
23684;SDS011;12020;51.384;6.908;2023-12-22T09:24:29;27.02;;;7.10;;
23684;SDS011;12020;51.384;6.908;2023-12-22T09:26:56;27.48;;;6.32;;
23684;SDS011;12020;51.384;6.908;2023-12-22T09:29:27;26.92;;;6.65;;
23684;SDS011;12020;51.384;6.908;2023-12-22T09:32:13;20.73;;;5.87;;
23684;SDS011;12020;51.384;6.908;2023-12-22T09:34:39;23.98;;;5.38;;
23684;SDS011;12020;51.384;6.908;2023-12-22T09:37:05;22.08;;;5.32;;
23684;SDS011;12020;51.384;6.908;2023-12-22T09:39:31;22.27;;;5.40;;
23684;SDS011;12020;51.384;6.908;2023-12-22T09:41:57;22.58;;;5.05;;
23684;SDS011;12020;51.384;6.908;2023-12-22T09:44:24;22.00;;;5.28;;
23684;SDS011;12020;51.384;6.908;2023-12-22T09:46:52;22.20;;;5.65;;
23684;SDS011;12020;51.384;6.908;2023-12-22T09:49:19;22.60;;;5.60;;
23684;SDS011;12020;51.384;6.908;2023-12-22T09:51:47;20.20;;;5.45;;
23684;SDS011;12020;51.384;6.908;2023-12-22T09:54:16;22.08;;;5.88;;
23684;SDS011;12020;51.384;6.908;2023-12-22T09:56:42;22.02;;;5.53;;
23684;SDS011;12020;51.384;6.908;2023-12-22T09:59:10;20.88;;;5.10;;
23684;SDS011;12020;51.384;6.908;2023-12-22T10:01:42;21.80;;;5.22;;
23684;SDS011;12020;51.384;6.908;2023-12-22T10:04:12;23.48;;;5.20;;
23684;SDS011;12020;51.384;6.908;2023-12-22T10:06:38;17.83;;;4.70;;
23684;SDS011;12020;51.384;6.908;2023-12-22T10:09:07;20.65;;;4.57;;
23684;SDS011;12020;51.384;6.908;2023-12-22T10:11:34;18.70;;;4.32;;
23684;SDS011;12020;51.384;6.908;2023-12-22T10:14:21;17.43;;;4.87;;
23684;SDS011;12020;51.384;6.908;2023-12-22T10:16:51;16.00;;;4.80;;
23684;SDS011;12020;51.384;6.908;2023-12-22T10:19:19;17.67;;;5.05;;
23684;SDS011;12020;51.384;6.908;2023-12-22T10:21:46;16.53;;;5.17;;
23684;SDS011;12020;51.384;6.908;2023-12-22T10:27:04;16.77;;;4.68;;
23684;SDS011;12020;51.384;6.908;2023-12-22T10:29:31;14.10;;;3.90;;
23684;SDS011;12020;51.384;6.908;2023-12-22T10:32:00;14.52;;;3.40;;
23684;SDS011;12020;51.384;6.908;2023-12-22T10:34:27;10.57;;;3.00;;
23684;SDS011;12020;51.384;6.908;2023-12-22T10:36:53;11.50;;;3.05;;
23684;SDS011;12020;51.384;6.908;2023-12-22T10:39:19;10.97;;;2.60;;
23684;SDS011;12020;51.384;6.908;2023-12-22T10:41:46;7.93;;;2.75;;
23684;SDS011;12020;51.384;6.908;2023-12-22T10:44:14;8.55;;;2.50;;
23684;SDS011;12020;51.384;6.908;2023-12-22T10:46:46;8.05;;;2.17;;
23684;SDS011;12020;51.384;6.908;2023-12-22T10:49:12;9.95;;;2.40;;
23684;SDS011;12020;51.384;6.908;2023-12-22T10:51:39;8.93;;;2.57;;
23684;SDS011;12020;51.384;6.908;2023-12-22T10:54:05;7.15;;;2.15;;
23684;SDS011;12020;51.384;6.908;2023-12-22T10:56:31;7.00;;;1.90;;
23684;SDS011;12020;51.384;6.908;2023-12-22T10:58:57;6.43;;;1.90;;
23684;SDS011;12020;51.384;6.908;2023-12-22T11:01:25;6.25;;;1.92;;
23684;SDS011;12020;51.384;6.908;2023-12-22T11:03:54;6.75;;;2.10;;
23684;SDS011;12020;51.384;6.908;2023-12-22T11:06:26;7.03;;;2.40;;
23684;SDS011;12020;51.384;6.908;2023-12-22T11:08:54;4.68;;;2.00;;
23684;SDS011;12020;51.384;6.908;2023-12-22T11:11:32;6.25;;;2.10;;
23684;SDS011;12020;51.384;6.908;2023-12-22T11:13:59;6.28;;;2.22;;
23684;SDS011;12020;51.384;6.908;2023-12-22T11:16:30;6.70;;;2.58;;
23684;SDS011;12020;51.384;6.908;2023-12-22T11:18:58;5.88;;;2.38;;
23684;SDS011;12020;51.384;6.908;2023-12-22T11:21:25;5.97;;;2.45;;
23684;SDS011;12020;51.384;6.908;2023-12-22T11:23:51;8.75;;;3.22;;
23684;SDS011;12020;51.384;6.908;2023-12-22T11:26:21;7.03;;;4.07;;
23684;SDS011;12020;51.384;6.908;2023-12-22T11:28:50;8.50;;;4.00;;
23684;SDS011;12020;51.384;6.908;2023-12-22T11:31:17;7.22;;;4.10;;
23684;SDS011;12020;51.384;6.908;2023-12-22T11:33:44;7.65;;;2.97;;
23684;SDS011;12020;51.384;6.908;2023-12-22T11:36:11;7.65;;;2.72;;
23684;SDS011;12020;51.384;6.908;2023-12-22T11:38:38;5.93;;;2.17;;
23684;SDS011;12020;51.384;6.908;2023-12-22T11:41:05;4.32;;;2.15;;
23684;SDS011;12020;51.384;6.908;2023-12-22T11:43:33;6.15;;;2.33;;
23684;SDS011;12020;51.384;6.908;2023-12-22T11:46:04;9.57;;;2.60;;
23684;SDS011;12020;51.384;6.908;2023-12-22T11:48:30;7.18;;;2.17;;
23684;SDS011;12020;51.384;6.908;2023-12-22T11:50:56;6.17;;;1.93;;
23684;SDS011;12020;51.384;6.908;2023-12-22T11:53:23;4.43;;;1.90;;
23684;SDS011;12020;51.384;6.908;2023-12-22T11:56:00;5.00;;;1.80;;
23684;SDS011;12020;51.384;6.908;2023-12-22T11:58:37;3.58;;;1.80;;
23684;SDS011;12020;51.384;6.908;2023-12-22T12:01:12;5.32;;;1.60;;
23684;SDS011;12020;51.384;6.908;2023-12-22T12:03:42;4.43;;;1.60;;
23684;SDS011;12020;51.384;6.908;2023-12-22T12:06:15;4.25;;;1.70;;
23684;SDS011;12020;51.384;6.908;2023-12-22T12:08:42;5.15;;;1.70;;
23684;SDS011;12020;51.384;6.908;2023-12-22T12:11:08;3.42;;;1.63;;
23684;SDS011;12020;51.384;6.908;2023-12-22T12:13:35;5.00;;;1.65;;
23684;SDS011;12020;51.384;6.908;2023-12-22T12:16:06;4.40;;;1.83;;
23684;SDS011;12020;51.384;6.908;2023-12-22T12:18:32;4.80;;;1.73;;
23684;SDS011;12020;51.384;6.908;2023-12-22T12:20:59;3.10;;;1.45;;
23684;SDS011;12020;51.384;6.908;2023-12-22T12:23:26;3.05;;;1.50;;
23684;SDS011;12020;51.384;6.908;2023-12-22T12:25:53;4.95;;;1.80;;
23684;SDS011;12020;51.384;6.908;2023-12-22T12:28:26;3.25;;;1.50;;
23684;SDS011;12020;51.384;6.908;2023-12-22T12:30:58;4.20;;;1.52;;
23684;SDS011;12020;51.384;6.908;2023-12-22T12:33:26;3.50;;;1.40;;
23684;SDS011;12020;51.384;6.908;2023-12-22T12:36:00;3.47;;;1.60;;
23684;SDS011;12020;51.384;6.908;2023-12-22T12:40:59;4.07;;;1.60;;
23684;SDS011;12020;51.384;6.908;2023-12-22T12:43:28;4.60;;;1.60;;
23684;SDS011;12020;51.384;6.908;2023-12-22T12:45:55;3.55;;;1.52;;
23684;SDS011;12020;51.384;6.908;2023-12-22T12:48:28;4.13;;;1.20;;
23684;SDS011;12020;51.384;6.908;2023-12-22T12:50:53;2.40;;;1.30;;
23684;SDS011;12020;51.384;6.908;2023-12-22T12:53:19;3.85;;;1.35;;
23684;SDS011;12020;51.384;6.908;2023-12-22T12:55:45;4.72;;;1.73;;
23684;SDS011;12020;51.384;6.908;2023-12-22T12:58:11;3.90;;;1.70;;
23684;SDS011;12020;51.384;6.908;2023-12-22T13:00:37;4.27;;;1.50;;
23684;SDS011;12020;51.384;6.908;2023-12-22T13:03:04;4.93;;;1.88;;
23684;SDS011;12020;51.384;6.908;2023-12-22T13:05:31;3.38;;;1.58;;
23684;SDS011;12020;51.384;6.908;2023-12-22T13:08:07;3.85;;;1.55;;
23684;SDS011;12020;51.384;6.908;2023-12-22T13:10:36;5.30;;;1.60;;
23684;SDS011;12020;51.384;6.908;2023-12-22T13:13:02;2.67;;;1.30;;
23684;SDS011;12020;51.384;6.908;2023-12-22T13:15:29;2.95;;;1.20;;
23684;SDS011;12020;51.384;6.908;2023-12-22T13:17:55;4.10;;;1.52;;
23684;SDS011;12020;51.384;6.908;2023-12-22T13:20:22;4.22;;;1.60;;
23684;SDS011;12020;51.384;6.908;2023-12-22T13:22:48;3.25;;;1.70;;
23684;SDS011;12020;51.384;6.908;2023-12-22T13:25:14;5.55;;;2.15;;
23684;SDS011;12020;51.384;6.908;2023-12-22T13:27:48;5.75;;;2.05;;
23684;SDS011;12020;51.384;6.908;2023-12-22T13:30:37;4.70;;;1.80;;
23684;SDS011;12020;51.384;6.908;2023-12-22T13:33:05;6.35;;;1.92;;
23684;SDS011;12020;51.384;6.908;2023-12-22T13:35:32;5.65;;;1.90;;
23684;SDS011;12020;51.384;6.908;2023-12-22T13:38:01;5.80;;;2.10;;
23684;SDS011;12020;51.384;6.908;2023-12-22T13:40:30;6.65;;;2.10;;
23684;SDS011;12020;51.384;6.908;2023-12-22T13:42:57;7.03;;;2.15;;
23684;SDS011;12020;51.384;6.908;2023-12-22T13:45:25;4.82;;;1.95;;
23684;SDS011;12020;51.384;6.908;2023-12-22T13:47:51;6.22;;;2.05;;
23684;SDS011;12020;51.384;6.908;2023-12-22T13:50:17;5.43;;;2.00;;
23684;SDS011;12020;51.384;6.908;2023-12-22T13:52:44;6.82;;;2.05;;
23684;SDS011;12020;51.384;6.908;2023-12-22T13:55:13;5.40;;;2.10;;
23684;SDS011;12020;51.384;6.908;2023-12-22T13:57:40;5.05;;;2.30;;
23684;SDS011;12020;51.384;6.908;2023-12-22T14:02:46;5.00;;;2.25;;
23684;SDS011;12020;51.384;6.908;2023-12-22T14:05:14;5.38;;;2.20;;
23684;SDS011;12020;51.384;6.908;2023-12-22T14:07:40;5.82;;;2.30;;
23684;SDS011;12020;51.384;6.908;2023-12-22T14:10:06;5.10;;;2.13;;
23684;SDS011;12020;51.384;6.908;2023-12-22T14:12:33;8.68;;;2.47;;
23684;SDS011;12020;51.384;6.908;2023-12-22T14:14:59;4.43;;;1.98;;
23684;SDS011;12020;51.384;6.908;2023-12-22T14:17:25;6.20;;;2.07;;
23684;SDS011;12020;51.384;6.908;2023-12-22T14:19:51;7.63;;;2.13;;
23684;SDS011;12020;51.384;6.908;2023-12-22T14:22:17;5.80;;;1.80;;
23684;SDS011;12020;51.384;6.908;2023-12-22T14:24:43;6.95;;;2.00;;
23684;SDS011;12020;51.384;6.908;2023-12-22T14:27:09;4.75;;;2.10;;
23684;SDS011;12020;51.384;6.908;2023-12-22T14:29:37;4.95;;;1.70;;
23684;SDS011;12020;51.384;6.908;2023-12-22T14:32:05;5.20;;;1.75;;
23684;SDS011;12020;51.384;6.908;2023-12-22T14:34:33;5.18;;;1.70;;
23684;SDS011;12020;51.384;6.908;2023-12-22T14:37:00;6.53;;;2.00;;
23684;SDS011;12020;51.384;6.908;2023-12-22T14:39:26;4.97;;;1.60;;
23684;SDS011;12020;51.384;6.908;2023-12-22T14:41:51;4.17;;;1.60;;
23684;SDS011;12020;51.384;6.908;2023-12-22T14:44:18;6.90;;;2.03;;
23684;SDS011;12020;51.384;6.908;2023-12-22T14:46:44;6.10;;;2.00;;
23684;SDS011;12020;51.384;6.908;2023-12-22T14:49:10;5.75;;;2.00;;
23684;SDS011;12020;51.384;6.908;2023-12-22T14:51:39;5.22;;;1.90;;
23684;SDS011;12020;51.384;6.908;2023-12-22T14:54:06;5.55;;;1.90;;
23684;SDS011;12020;51.384;6.908;2023-12-22T14:56:33;5.57;;;1.70;;
23684;SDS011;12020;51.384;6.908;2023-12-22T14:59:03;5.35;;;1.92;;
23684;SDS011;12020;51.384;6.908;2023-12-22T15:01:28;4.25;;;1.70;;
23684;SDS011;12020;51.384;6.908;2023-12-22T15:03:58;6.10;;;1.90;;
23684;SDS011;12020;51.384;6.908;2023-12-22T15:06:24;4.90;;;1.60;;
23684;SDS011;12020;51.384;6.908;2023-12-22T15:08:50;5.47;;;1.73;;
23684;SDS011;12020;51.384;6.908;2023-12-22T15:11:15;4.95;;;1.70;;
23684;SDS011;12020;51.384;6.908;2023-12-22T15:13:42;3.92;;;1.60;;
23684;SDS011;12020;51.384;6.908;2023-12-22T15:16:08;4.00;;;1.30;;
23684;SDS011;12020;51.384;6.908;2023-12-22T15:18:35;3.60;;;1.33;;
23684;SDS011;12020;51.384;6.908;2023-12-22T15:21:01;3.63;;;1.00;;
23684;SDS011;12020;51.384;6.908;2023-12-22T15:23:28;3.13;;;1.20;;
23684;SDS011;12020;51.384;6.908;2023-12-22T15:25:56;2.83;;;1.30;;
23684;SDS011;12020;51.384;6.908;2023-12-22T15:28:21;5.43;;;1.52;;
23684;SDS011;12020;51.384;6.908;2023-12-22T15:30:47;6.20;;;2.08;;
23684;SDS011;12020;51.384;6.908;2023-12-22T15:33:21;6.27;;;2.00;;
23684;SDS011;12020;51.384;6.908;2023-12-22T15:35:53;5.78;;;1.95;;
23684;SDS011;12020;51.384;6.908;2023-12-22T15:38:21;5.65;;;2.00;;
23684;SDS011;12020;51.384;6.908;2023-12-22T15:40:54;6.85;;;2.10;;
23684;SDS011;12020;51.384;6.908;2023-12-22T15:43:48;7.28;;;2.22;;
23684;SDS011;12020;51.384;6.908;2023-12-22T15:48:50;5.82;;;2.10;;
23684;SDS011;12020;51.384;6.908;2023-12-22T15:51:17;6.13;;;1.98;;
23684;SDS011;12020;51.384;6.908;2023-12-22T15:53:48;5.07;;;2.00;;